Startpagina
METAR-TAF:

METAR-TAF

Vliegvelden :

Dubai International Airport

Dubai, Verenigde Arabische Emiraten

breedte: 25-15-10N, lengte: 055-21-52E, hoogte: 8 m

Actueel weer

Dit bericht is 52 minuten geleden gemaakt, om 21:00 UTC
Wind 4 kt uit het zuidzuidoosten
Temperatuur 32°C
Vochtigheid 56%
Druk 998 hPa
Zicht 10 km of meer
geen wolken onder 1500 m en geen cumulonimbus

METAR: OMDB 172100Z 16004KT CAVOK 32/22 Q0998 NOSIG

Tijdstip: 01:52 (21:52 UTC)

Verwachting

Dit bericht is 4 uur en het 58 minuten geleden gemaakt, om 16:54 UTC
Verwachting geldig van 17 om 18 UTC tot 19 om 00 UTC
Wind 10 kt uit het westen
Zicht: 8000 m
Wijzigt naar
van 17 om 18 UTC tot 17 om 20 UTC
Wind 5 kt uit het zuiden
Wijzigt naar
van 18 om 07 UTC tot 18 om 09 UTC
Wind 12 kt uit het westnoordwesten
Wijzigt naar
van 18 om 15 UTC tot 18 om 17 UTC
Wind 5 kt uit het oostnoordoosten

TAF: OMDB 171654Z 1718/1900 26010KT 8000 NSC BECMG 1718/1720 19005KT BECMG 1807/1809 29012KT BECMG 1815/1817 07005KT

Waarnemingen en weersverwachtingen van meer dan 4000 vliegvelden (METAR en TAF).

De beschikbare stations zijn de gele en rode punten op de kaart.

Ga met uw muis naar het station om de naam te zien.

Klik dan om waarnemingen en weersverwachtingen te zien.

kaart wijzigen: klik op de groene knoppen met een zwart kruis om in te zoomen, op de groene knop met een streepje om uit te zoomen of op de groene pijlen voor aangrenzende kaarten.


METAR-TAF: